Currently 52°F in Fallbrook, California, USA
52°F
54°F / 50°F
calm
0.00"
Tuesday, April 24, 2018 7:45 AM PDT

Fallbrook, California Weather Summary
Last 36 Hours

Temperature Winds Hourly Humidity Dewpoint
Time Report Norm Report Norm Max Gusts Precip. Rpt. Norm Rpt. Norm Pressure
1Tue 07:45 AM  51.5°F  56°F  calm  calm  none  0.00"  100%  89%  52°F  53°F  30.03"
Tue 07:00 AM  51.0°F  55°F  calm  calm  none  0.00"  100%  90%  51°F  52°F  30.02"
Tue 06:00 AM  50.9°F  54°F  calm  calm  none  0.00"  100%  91%  51°F  51°F  30.01"
3Tue 05:00 AM  49.8°F  54°F  calm  calm  none  0.00"  100%  91%  50°F  51°F  30.00"
Tue 04:00 AM  51.5°F  54°F  calm  calm  none  0.00"  100%  91%  51°F  52°F  29.98"
Tue 03:00 AM  52.8°F  55°F  calm  calm  4 mph  0.00"  100%  92%  53°F  52°F  29.98"
Tue 02:00 AM  53.9°F  55°F  calm  calm  none  0.00"  100%  91%  54°F  53°F  30.01"
Tue 01:00 AM  53.8°F  56°F  calm  calm  none  0.00"  100%  91%  54°F  53°F  30.02"
2Tue 12:02 AM  54.3°F  56°F  calm  calm  none  ----  100%  91%  54°F  53°F  30.03"
Tue 12:00 AM  54.3°F  56°F  calm  calm  none  0.00"  100%  91%  54°F  53°F  30.03"
Mon 11:00 PM  55.5°F  56°F  calm  calm  none  0.00"  100%  90%  55°F  54°F  30.02"
Mon 10:00 PM  56.5°F  57°F  calm  calm  none  0.00"  100%  90%  56°F  54°F  30.02"
Mon 09:00 PM  56.6°F  58°F  calm  calm  none  0.00"  99%  88%  56°F  54°F  30.01"
Mon 08:00 PM  57.9°F  59°F  calm  1 mph  4 mph  0.00"  97%  84%  57°F  54°F  30.00"
Mon 07:00 PM  60.0°F  62°F  calm  2 mph  9 mph  0.00"  93%  76%  58°F  54°F  29.99"
Mon 06:00 PM  63.7°F  66°F  3 mph SW  4 mph  9 mph  0.00"  81%  67%  58°F  54°F  29.97"
Mon 05:00 PM  71.0°F  69°F  3 mph S  5 mph  8 mph  0.00"  64%  61%  58°F  54°F  29.95"
Mon 04:00 PM  73.1°F  71°F  3 mph S  6 mph  9 mph  0.00"  59%  57%  57°F  54°F  29.95"
Mon 03:00 PM  77.9°F  72°F  3 mph S  5 mph  8 mph  0.00"  50%  56%  57°F  55°F  29.96"
Mon 02:00 PM  77.9°F  72°F  3 mph SW  5 mph  9 mph  0.00"  47%  56%  55°F  55°F  29.97"
Mon 01:00 PM  79.3°F  72°F  2 mph SW  5 mph  7 mph  0.00"  44%  57%  55°F  55°F  29.98"
Mon 12:00 PM  75.2°F  71°F  1 mph SW  4 mph  6 mph  0.00"  53%  59%  56°F  55°F  30.01"
Mon 11:00 AM  69.4°F  68°F  calm  3 mph  7 mph  0.00"  74%  64%  61°F  55°F  30.03"
Mon 10:00 AM  60.0°F  65°F  calm  2 mph  4 mph  0.01"  100%  72%  60°F  55°F  30.03"
Mon 09:00 AM  54.9°F  61°F  calm  1 mph  none  0.00"  100%  80%  55°F  55°F  30.03"
Mon 08:00 AM  53.5°F  57°F  calm  calm  none  0.00"  100%  87%  53°F  53°F  30.03"
Mon 07:00 AM  51.3°F  54°F  calm  calm  none  0.00"  100%  89%  51°F  51°F  30.02"
Mon 06:00 AM  48.9°F  54°F  calm  calm  none  0.00"  100%  90%  49°F  51°F  30.01"
Mon 05:00 AM  50.2°F  54°F  calm  calm  none  0.00"  100%  90%  50°F  51°F  29.99"
Mon 04:00 AM  51.4°F  54°F  calm  calm  none  0.00"  100%  90%  51°F  52°F  29.96"
Mon 03:00 AM  53.3°F  55°F  calm  calm  none  0.00"  100%  91%  53°F  52°F  29.97"
Mon 02:00 AM  53.9°F  55°F  calm  calm  none  0.00"  100%  90%  54°F  52°F  29.97"
Mon 01:00 AM  55.8°F  56°F  calm  calm  none  0.00"  100%  90%  56°F  53°F  29.97"
Mon 12:00 AM  56.6°F  56°F  calm  calm  none  0.00"  100%  90%  57°F  53°F  29.97"
Sun 11:00 PM  57.2°F  56°F  calm  calm  none  0.00"  100%  89%  57°F  53°F  29.97"
Sun 10:00 PM  58.0°F  57°F  calm  calm  none  0.00"  99%  88%  58°F  53°F  29.97"
Sun 09:00 PM  59.3°F  58°F  calm  calm  none  0.00"  97%  87%  58°F  54°F  29.96"
Sun 08:00 PM  62.2°F  59°F  calm  1 mph  6 mph  0.00"  88%  83%  59°F  54°F  29.95"

  1. Current weather data. No green row appears if the current weather data is also the high or low for the current day.
  2. High temperature for the current day.
  3. Low temperature for the current day.

The Fallbrook weather pages are a service of WeatherCurrents. Fallbrook, California is located in northern San Diego County, close to I15 and Camp Pendleton, and is home to ranches, avocado and citrus groves, and plant nurseries.
Copyright ©Tue Apr 24 07:46:01 PDT 2018  WeatherCurrents. All rights reserved. - Submit questions and comments - Privacy Policy

This page automatically refreshes every 10 minutes.